Time;durP1;ratioP1;P1;durP2;ratioP2;P2;SDS_P1;SDS_P2;PMS_P1;PMS_P2;Temp;Humidity;BMP_temperature;BMP_pressure;BME280_temperature;BME280_humidity;BME280_pressure;Samples;Min_cycle;Max_cycle;Signal;HPM_P1;HPM_P2
2022/11/19 00:02:01;;;;;;;;;;;;;;;2.66;71.81;98522.66;5096515;28;19924;-70
2022/11/19 00:04:32;;;;;;;;;;;;;;;2.63;72.03;98518.44;5097787;28;19924;-70
2022/11/19 00:07:00;;;;;;;;;;;;;;;2.66;71.71;98527.69;5098049;28;19946;-70
2022/11/19 00:09:29;;;;;;;;;;;;;;;2.70;72.31;98544.53;5097660;28;19924;-70
2022/11/19 00:14:35;;;;;;;;;;;;;;;2.69;71.81;98547.88;5097648;28;19985;-70
2022/11/19 00:17:03;;;;;;;;;;;;;;;2.71;72.17;98549.56;5097880;28;20411;-70
2022/11/19 00:19:34;;;;;;;;;;;;;;;2.71;72.00;98554.59;5097843;28;20342;-70
2022/11/19 00:22:02;;;;;;;;;;;;;;;2.63;72.40;98551.16;5097487;28;19951;-70
2022/11/19 00:24:30;;;;;;;;;;;;;;;2.64;71.74;98554.50;5096158;28;19928;-70
2022/11/19 00:26:58;;;;;;;;;;;;;;;2.62;71.95;98552.00;5097710;28;19924;-70
2022/11/19 00:29:27;;;;;;;;;;;;;;;2.62;72.17;98557.03;5097623;28;19924;-70
2022/11/19 00:31:55;;;;;;;;;;;;;;;2.58;72.23;98565.38;5097228;28;19927;-70
2022/11/19 00:34:24;;;;;;;;;;;;;;;2.51;71.38;98571.16;5097149;28;19924;-70
2022/11/19 00:36:54;;;;;;;;;;;;;;;2.50;72.11;98577.00;5096932;28;20340;-70
2022/11/19 00:39:22;;;;;;;;;;;;;;;2.42;71.66;98577.75;5097138;28;19931;-70
2022/11/19 00:41:51;;;;;;;;;;;;;;;2.41;72.01;98591.16;5097089;28;19924;-70
2022/11/19 00:44:19;;;;;;;;;;;;;;;2.43;71.76;98592.88;5096894;28;19928;-70
2022/11/19 00:46:48;;;;;;;;;;;;;;;2.44;71.71;98596.22;5097010;28;19977;-70
2022/11/19 00:49:16;;;;;;;;;;;;;;;2.40;71.79;98605.41;5096927;28;19928;-70
2022/11/19 00:51:45;;;;;;;;;;;;;;;2.43;71.46;98607.97;5097156;28;20436;-70
2022/11/19 00:54:15;;;;;;;;;;;;;;;2.43;71.88;98619.69;5096799;28;20002;-70
2022/11/19 00:56:43;;;;;;;;;;;;;;;2.38;72.02;98622.16;5096215;28;19931;-70
2022/11/19 00:59:12;;;;;;;;;;;;;;;2.37;72.16;98615.44;5097078;28;19924;-70
2022/11/19 01:01:40;;;;;;;;;;;;;;;2.35;71.87;98619.59;5096675;28;19930;-70
2022/11/19 01:04:09;;;;;;;;;;;;;;;2.38;72.30;98637.25;5096682;28;19931;-70
2022/11/19 01:06:37;;;;;;;;;;;;;;;2.43;72.25;98635.66;5096597;28;19966;-70
2022/11/19 01:09:06;;;;;;;;;;;;;;;2.48;71.84;98631.53;5096548;28;19928;-70
2022/11/19 01:11:36;;;;;;;;;;;;;;;2.50;71.25;98634.06;5096824;28;20006;-70
2022/11/19 01:14:05;;;;;;;;;;;;;;;2.49;71.07;98620.66;5096443;28;19924;-70
2022/11/19 01:16:35;;;;;;;;;;;;;;;2.50;71.92;98622.34;5096798;28;19931;-70
2022/11/19 01:19:04;;;;;;;;;;;;;;;2.59;71.73;98642.59;5096674;28;20370;-69
2022/11/19 01:21:34;;;;;;;;;;;;;;;2.65;71.96;98641.84;5096293;28;19931;-71
2022/11/19 01:24:03;;;;;;;;;;;;;;;2.65;71.54;98642.69;5096180;28;20378;-71
2022/11/19 01:26:32;;;;;;;;;;;;;;;2.64;71.07;98646.03;5096224;28;20411;-70
2022/11/19 01:29:02;;;;;;;;;;;;;;;2.66;71.02;98648.59;5096197;28;19924;-71
2022/11/19 01:31:30;;;;;;;;;;;;;;;2.65;70.91;98647.72;5096158;28;19931;-70
2022/11/19 01:33:59;;;;;;;;;;;;;;;2.61;71.07;98635.94;5096324;28;20281;-71
2022/11/19 01:36:28;;;;;;;;;;;;;;;2.57;70.97;98636.69;5096001;28;19924;-70
2022/11/19 01:38:59;;;;;;;;;;;;;;;2.54;70.92;98645.91;5096240;28;20397;-70
2022/11/19 01:41:29;;;;;;;;;;;;;;;2.55;70.53;98645.91;5096084;28;19938;-71
2022/11/19 01:43:59;;;;;;;;;;;;;;;2.55;70.95;98650.94;5095835;28;19954;-70
2022/11/19 01:46:30;;;;;;;;;;;;;;;2.57;70.52;98651.81;5095734;28;19924;-71
2022/11/19 01:49:02;;;;;;;;;;;;;;;2.57;70.56;98664.41;5095805;28;19924;-71
2022/11/19 01:51:31;;;;;;;;;;;;;;;2.52;70.32;98648.38;5096057;28;20290;-71
2022/11/19 01:54:03;;;;;;;;;;;;;;;2.49;70.44;98655.06;5094835;28;19924;-70
2022/11/19 01:56:32;;;;;;;;;;;;;;;2.51;70.10;98650.88;5095644;28;19924;-71
2022/11/19 01:59:02;;;;;;;;;;;;;;;2.48;69.76;98669.31;5095540;28;19931;-70
2022/11/19 02:01:32;;;;;;;;;;;;;;;2.49;70.44;98668.50;5095571;28;19924;-70
2022/11/19 02:04:02;;;;;;;;;;;;;;;2.44;69.57;98680.16;5095497;28;19930;-71
2022/11/19 02:06:30;;;;;;;;;;;;;;;2.37;69.83;98678.38;5095033;28;19924;-70
2022/11/19 02:08:59;;;;;;;;;;;;;;;2.37;69.64;98675.88;5094985;28;19983;-71
2022/11/19 02:11:42;;;;;;;;;;;;;;;2.34;70.01;98675.81;5095349;28;19928;-71
2022/11/19 02:14:20;;;;;;;;;;;;;;;2.35;69.56;98682.53;5095638;28;20305;-71
2022/11/19 02:16:54;;;;;;;;;;;;;;;2.38;69.96;98677.53;5095238;28;19931;-71
2022/11/19 02:19:40;;;;;;;;;;;;;;;2.40;69.59;98670.84;5095583;28;19924;-70
2022/11/19 02:22:16;;;;;;;;;;;;;;;2.36;69.56;98674.16;5095493;28;19973;-71
2022/11/19 02:24:50;;;;;;;;;;;;;;;2.35;68.88;98672.44;5095402;28;19924;-71
2022/11/19 02:27:39;;;;;;;;;;;;;;;2.34;68.71;98680.84;5094288;28;20026;-70
2022/11/19 02:30:10;;;;;;;;;;;;;;;2.37;68.78;98700.19;5095328;28;19924;-71
2022/11/19 02:32:45;;;;;;;;;;;;;;;2.38;68.64;98697.69;5095022;28;19924;-70
2022/11/19 02:35:17;;;;;;;;;;;;;;;2.37;68.53;98696.00;5094851;28;20293;-70
2022/11/19 02:37:50;;;;;;;;;;;;;;;2.36;68.17;98694.28;5094583;28;19925;-70
2022/11/19 02:40:22;;;;;;;;;;;;;;;2.38;68.57;98690.13;5094849;28;19977;-70
2022/11/19 02:42:53;;;;;;;;;;;;;;;2.41;68.35;98689.31;5095075;28;20290;-71
2022/11/19 02:45:26;;;;;;;;;;;;;;;2.40;68.65;98685.94;5094610;28;19930;-72
2022/11/19 02:47:56;;;;;;;;;;;;;;;2.39;68.72;98699.38;5094627;28;19928;-71
2022/11/19 02:50:27;;;;;;;;;;;;;;;2.37;68.38;98710.25;5094714;28;20283;-71
2022/11/19 02:52:56;;;;;;;;;;;;;;;2.33;68.00;98719.41;5094690;28;19931;-71
2022/11/19 02:55:25;;;;;;;;;;;;;;;2.35;68.40;98722.78;5094500;28;19924;-71
2022/11/19 02:57:58;;;;;;;;;;;;;;;2.31;67.59;98725.25;5094437;28;20377;-71
2022/11/19 03:05:57;;;;;;;;;;;;;;;2.31;67.53;98741.19;5094248;28;20366;-71
2022/11/19 03:08:26;;;;;;;;;;;;;;;2.35;68.25;98742.94;5094644;28;20385;-71
2022/11/19 03:11:01;;;;;;;;;;;;;;;2.36;67.62;98757.22;5094307;28;19924;-71
2022/11/19 03:19:03;;;;;;;;;;;;;;;2.33;67.16;98774.78;5092993;28;20370;-71
2022/11/19 03:21:35;;;;;;;;;;;;;;;2.33;66.91;98784.00;5094546;28;20427;-71
2022/11/19 03:24:07;;;;;;;;;;;;;;;2.37;67.50;98780.75;5093287;28;20370;-71
2022/11/19 03:26:37;;;;;;;;;;;;;;;2.40;67.29;98785.84;5094494;28;19947;-71
2022/11/19 03:29:08;;;;;;;;;;;;;;;2.39;67.13;98782.47;5094423;28;19924;-71
2022/11/19 03:31:40;;;;;;;;;;;;;;;2.33;67.27;98789.88;5094186;28;19924;-71
2022/11/19 03:34:12;;;;;;;;;;;;;;;2.29;66.46;98803.25;5094346;28;20314;-71
2022/11/19 03:36:41;;;;;;;;;;;;;;;2.26;66.44;98803.19;5093908;28;19928;-71
2022/11/19 03:39:11;;;;;;;;;;;;;;;2.26;66.14;98830.03;5093962;28;19977;-71
2022/11/19 03:41:40;;;;;;;;;;;;;;;2.25;66.38;98816.63;5093985;28;19928;-71
2022/11/19 03:44:12;;;;;;;;;;;;;;;2.24;66.10;98830.00;5093902;28;19924;-71
2022/11/19 03:46:44;;;;;;;;;;;;;;;2.27;65.85;98842.66;5093990;28;19924;-71
2022/11/19 03:49:14;;;;;;;;;;;;;;;2.33;66.52;98850.31;5093863;28;19924;-71
2022/11/19 03:51:46;;;;;;;;;;;;;;;2.34;65.88;98856.19;5094142;28;20026;-71
2022/11/19 03:54:14;;;;;;;;;;;;;;;2.32;66.06;98862.88;5093919;28;19928;-71
2022/11/19 03:56:45;;;;;;;;;;;;;;;2.32;65.75;98878.84;5093836;28;19925;-71
2022/11/19 03:59:13;;;;;;;;;;;;;;;2.35;66.29;98883.91;5093880;28;19924;-71
2022/11/19 04:01:44;;;;;;;;;;;;;;;2.32;65.54;98883.88;5093792;28;19931;-71
2022/11/19 04:06:50;;;;;;;;;;;;;;;2.28;64.89;98899.72;5094112;28;20007;-70
2022/11/19 04:09:18;;;;;;;;;;;;;;;2.28;64.82;98892.16;5093716;28;19928;-70
2022/11/19 04:11:46;;;;;;;;;;;;;;;2.28;64.67;98894.69;5094042;28;19931;-70
2022/11/19 04:14:14;;;;;;;;;;;;;;;2.25;64.97;98888.75;5093676;28;19970;-71
2022/11/19 04:16:43;;;;;;;;;;;;;;;2.24;64.04;98895.44;5094022;28;20023;-70
2022/11/19 04:19:12;;;;;;;;;;;;;;;2.25;64.81;98897.16;5093986;28;19924;-70
2022/11/19 04:21:40;;;;;;;;;;;;;;;2.26;64.01;98903.88;5093861;28;19924;-70
2022/11/19 04:24:09;;;;;;;;;;;;;;;2.25;64.09;98896.31;5093587;28;19935;-70
2022/11/19 04:26:37;;;;;;;;;;;;;;;2.30;63.99;98902.28;5093469;28;19931;-70
2022/11/19 04:29:05;;;;;;;;;;;;;;;2.30;63.93;98903.13;5093549;28;19931;-70
2022/11/19 04:31:34;;;;;;;;;;;;;;;2.27;63.50;98915.66;5095948;28;19974;-70
2022/11/19 04:34:03;;;;;;;;;;;;;;;2.23;63.36;98928.97;5097268;28;19924;-70
2022/11/19 04:36:32;;;;;;;;;;;;;;;2.22;63.19;98921.41;5097182;28;19924;-70
2022/11/19 04:39:01;;;;;;;;;;;;;;;2.19;63.16;98922.19;5095894;28;20297;-70
2022/11/19 04:41:29;;;;;;;;;;;;;;;2.25;63.46;98916.44;5097384;28;20328;-70
2022/11/19 04:43:58;;;;;;;;;;;;;;;2.20;62.91;98908.81;5097021;28;20445;-70
2022/11/19 04:46:26;;;;;;;;;;;;;;;2.22;62.90;98907.16;5095737;28;20340;-70
2022/11/19 04:48:54;;;;;;;;;;;;;;;2.25;63.32;98918.97;5096856;28;19924;-70
2022/11/19 04:51:24;;;;;;;;;;;;;;;2.28;63.34;98916.50;5096894;28;19924;-70
2022/11/19 04:53:54;;;;;;;;;;;;;;;2.20;62.62;98903.78;5096818;28;19963;-70
2022/11/19 04:56:22;;;;;;;;;;;;;;;2.21;62.96;98920.53;5097082;28;20305;-70
2022/11/19 04:58:50;;;;;;;;;;;;;;;2.25;63.83;98922.31;5097060;28;20393;-70
2022/11/19 05:01:20;;;;;;;;;;;;;;;2.23;63.39;98923.94;5097042;28;20328;-70
2022/11/19 05:03:49;;;;;;;;;;;;;;;2.20;63.71;98944.03;5096617;28;19928;-70
2022/11/19 05:06:18;;;;;;;;;;;;;;;2.22;63.52;98952.47;5096565;28;19925;-70
2022/11/19 05:08:47;;;;;;;;;;;;;;;2.18;63.82;98948.19;5096559;28;19924;-70
2022/11/19 05:11:16;;;;;;;;;;;;;;;2.15;63.31;98945.59;5096480;28;19931;-70
2022/11/19 05:13:44;;;;;;;;;;;;;;;2.16;63.16;98942.25;5095550;28;19931;-70
2022/11/19 05:16:12;;;;;;;;;;;;;;;2.17;63.19;98943.97;5096729;28;20285;-70
2022/11/19 05:18:41;;;;;;;;;;;;;;;2.20;63.25;98945.69;5096370;28;20401;-70
2022/11/19 05:21:09;;;;;;;;;;;;;;;2.21;63.32;98945.72;5096387;28;19928;-70
2022/11/19 05:23:37;;;;;;;;;;;;;;;2.20;63.15;98933.97;5096243;28;20023;-70
2022/11/19 05:26:07;;;;;;;;;;;;;;;2.21;63.07;98940.69;5096164;28;19931;-70
2022/11/19 05:28:35;;;;;;;;;;;;;;;2.15;63.52;98935.53;5096211;28;19977;-70
2022/11/19 05:31:07;;;;;;;;;;;;;;;2.09;63.10;98940.44;5096253;28;19974;-70
2022/11/19 05:33:35;;;;;;;;;;;;;;;2.03;63.35;98950.38;5096101;28;19931;-70
2022/11/19 05:36:04;;;;;;;;;;;;;;;1.98;62.84;98967.03;5096339;28;19924;-70
2022/11/19 05:38:32;;;;;;;;;;;;;;;1.94;63.36;98985.41;5095840;28;19930;-70
2022/11/19 05:41:01;;;;;;;;;;;;;;;1.96;63.43;98993.84;5095864;28;19928;-70
2022/11/19 05:43:30;;;;;;;;;;;;;;;1.96;62.81;98991.31;5095918;28;19935;-70
2022/11/19 05:45:59;;;;;;;;;;;;;;;1.96;63.07;98998.88;5095952;28;19932;-70
2022/11/19 05:48:27;;;;;;;;;;;;;;;1.97;63.14;98995.53;5095790;28;19924;-70
2022/11/19 05:50:56;;;;;;;;;;;;;;;1.93;63.30;99006.34;5095781;28;19931;-70
2022/11/19 05:53:24;;;;;;;;;;;;;;;1.87;62.89;98999.50;5096073;28;19924;-70
2022/11/19 05:55:53;;;;;;;;;;;;;;;1.84;62.40;98993.56;5095997;28;20034;-70
2022/11/19 05:58:21;;;;;;;;;;;;;;;1.82;62.82;98995.22;5095605;28;20031;-70
2022/11/19 06:00:55;;;;;;;;;;;;;;;1.81;62.97;99003.56;5095574;28;19928;-70
2022/11/19 06:03:23;;;;;;;;;;;;;;;1.82;62.86;99015.34;5095587;28;19924;-70
2022/11/19 06:05:52;;;;;;;;;;;;;;;1.83;62.70;99015.34;5095398;28;19924;-70
2022/11/19 06:08:20;;;;;;;;;;;;;;;1.83;62.44;99022.91;5095357;28;19928;-70
2022/11/19 06:10:49;;;;;;;;;;;;;;;1.84;63.19;99033.81;5095909;28;19928;-69
2022/11/19 06:13:17;;;;;;;;;;;;;;;1.84;63.25;99028.78;5095253;28;20024;-71
2022/11/19 06:15:46;;;;;;;;;;;;;;;1.81;63.48;99023.69;5094104;28;20014;-71
2022/11/19 06:18:16;;;;;;;;;;;;;;;1.79;62.64;99037.88;5095268;28;19930;-71
2022/11/19 06:20:44;;;;;;;;;;;;;;;1.78;63.53;99033.66;5095453;28;19924;-71
2022/11/19 06:23:13;;;;;;;;;;;;;;;1.81;63.57;99031.22;5095558;28;20385;-71
2022/11/19 06:25:41;;;;;;;;;;;;;;;1.85;63.62;99036.34;5094874;28;20011;-71
2022/11/19 06:28:10;;;;;;;;;;;;;;;1.84;63.50;99047.25;5095068;28;19942;-71
2022/11/19 06:30:38;;;;;;;;;;;;;;;1.88;63.57;99043.13;5095230;28;20380;-71
2022/11/19 06:33:06;;;;;;;;;;;;;;;1.85;63.58;99053.97;5094924;28;19924;-71
2022/11/19 06:35:36;;;;;;;;;;;;;;;1.91;63.27;99055.78;5094837;28;19931;-71
2022/11/19 06:38:06;;;;;;;;;;;;;;;2.10;62.42;99055.38;5093738;28;20344;-71
2022/11/19 06:40:34;;;;;;;;;;;;;;;2.20;62.45;99062.34;5094707;28;19924;-70
2022/11/19 06:43:02;;;;;;;;;;;;;;;2.23;62.15;99077.47;5094870;28;20289;-70
2022/11/19 06:45:32;;;;;;;;;;;;;;;2.12;61.46;99078.91;5094655;28;19931;-70
2022/11/19 06:48:00;;;;;;;;;;;;;;;2.11;62.46;99094.84;5094568;28;19924;-70
2022/11/19 06:50:28;;;;;;;;;;;;;;;2.06;61.72;99095.53;5094928;28;19993;-70
2022/11/19 06:52:58;;;;;;;;;;;;;;;1.96;62.15;99084.41;5094093;28;19924;-70
2022/11/19 06:55:27;;;;;;;;;;;;;;;1.89;61.86;99090.13;5094450;28;19971;-70
2022/11/19 06:57:56;;;;;;;;;;;;;;;1.92;61.85;99092.72;5094543;28;20289;-70
2022/11/19 07:00:25;;;;;;;;;;;;;;;1.95;62.07;99103.69;5094340;28;19924;-70
2022/11/19 07:02:53;;;;;;;;;;;;;;;2.06;61.93;99096.41;5094222;28;19931;-70
2022/11/19 07:05:21;;;;;;;;;;;;;;;2.15;61.29;99098.25;5094235;28;20423;-70
2022/11/19 07:07:49;;;;;;;;;;;;;;;2.29;61.45;99094.38;5094564;28;20268;-70
2022/11/19 07:10:19;;;;;;;;;;;;;;;2.38;61.49;99100.47;5094442;28;20281;-70
2022/11/19 07:12:47;;;;;;;;;;;;;;;2.47;61.03;99103.19;5094193;28;19959;-70
2022/11/19 07:15:16;;;;;;;;;;;;;;;2.59;61.25;99100.94;5094452;28;19924;-70
2022/11/19 07:17:44;;;;;;;;;;;;;;;2.59;60.94;99115.22;5094108;28;19959;-70
2022/11/19 07:20:12;;;;;;;;;;;;;;;2.67;60.68;99123.78;5094026;28;19925;-71
2022/11/19 07:22:41;;;;;;;;;;;;;;;2.83;61.07;99112.38;5094029;28;19931;-70
2022/11/19 07:25:11;;;;;;;;;;;;;;;2.93;60.67;99121.81;5094357;28;20303;-70
2022/11/19 07:27:45;;;;;;;;;;;;;;;2.98;60.03;99132.81;5094270;28;19928;-70
2022/11/19 07:30:13;;;;;;;;;;;;;;;3.09;59.29;99138.94;5094042;28;19924;-70
2022/11/19 07:32:42;;;;;;;;;;;;;;;3.12;59.03;99149.09;5093966;28;20027;-70
2022/11/19 07:35:11;;;;;;;;;;;;;;;3.15;58.69;99149.13;5093895;28;19931;-70
2022/11/19 07:37:39;;;;;;;;;;;;;;;3.08;58.45;99147.31;5093694;28;19928;-70
2022/11/19 07:40:09;;;;;;;;;;;;;;;3.10;58.54;99135.59;5090339;28;19924;-70
2022/11/19 07:45:18;;;;;;;;;;;;;;;3.28;58.38;99115.78;5093879;28;19931;-70
2022/11/19 07:47:46;;;;;;;;;;;;;;;3.44;58.65;99116.91;5094043;28;19924;-70
2022/11/19 07:50:15;;;;;;;;;;;;;;;3.54;57.93;99127.19;5093909;28;20285;-70
2022/11/19 07:52:43;;;;;;;;;;;;;;;3.70;58.25;99131.69;5094025;28;19924;-70
2022/11/19 07:55:12;;;;;;;;;;;;;;;3.64;57.44;99126.53;5093699;28;19956;-70
2022/11/19 07:57:40;;;;;;;;;;;;;;;3.40;57.21;99126.09;5093990;28;19928;-70
2022/11/19 08:00:09;;;;;;;;;;;;;;;3.09;57.81;99131.38;5093751;28;20434;-70
2022/11/19 08:02:42;;;;;;;;;;;;;;;3.03;58.10;99133.75;5094062;28;19978;-70
2022/11/19 08:05:10;;;;;;;;;;;;;;;2.99;57.59;99137.06;5094632;28;20405;-71
2022/11/19 08:07:38;;;;;;;;;;;;;;;2.97;57.54;99143.72;5097589;28;20366;-71
2022/11/19 08:10:08;;;;;;;;;;;;;;;2.91;58.38;99153.66;5095366;28;19924;-69
2022/11/19 08:12:37;;;;;;;;;;;;;;;2.94;58.44;99159.63;5096717;28;19928;-70
2022/11/19 08:15:06;;;;;;;;;;;;;;;2.99;58.50;99162.25;5097278;28;20002;-70
2022/11/19 08:20:14;;;;;;;;;;;;;;;2.89;58.62;99180.50;5096737;28;20397;-70
2022/11/19 08:22:42;;;;;;;;;;;;;;;2.94;58.04;99178.94;5097078;28;19952;-70
2022/11/19 08:25:10;;;;;;;;;;;;;;;2.88;57.79;99191.44;5097063;28;19924;-69
2022/11/19 08:27:39;;;;;;;;;;;;;;;2.91;58.57;99189.81;5097090;28;20015;-70
2022/11/19 08:30:08;;;;;;;;;;;;;;;2.95;58.63;99194.06;5096942;28;19924;-70
2022/11/19 08:32:36;;;;;;;;;;;;;;;3.04;58.57;99201.00;5097309;28;19950;-70
2022/11/19 08:35:05;;;;;;;;;;;;;;;2.99;58.67;99197.53;5097222;28;19924;-70
2022/11/19 08:37:35;;;;;;;;;;;;;;;3.02;58.26;99200.13;5083512;28;19924;-70
2022/11/19 08:40:03;;;;;;;;;;;;;;;2.93;58.11;99193.19;5076622;28;19924;-70
2022/11/19 08:45:09;;;;;;;;;;;;;;;2.96;58.10;99200.84;5076828;28;19924;-70
2022/11/19 08:47:38;;;;;;;;;;;;;;;2.99;58.36;99197.53;5076308;28;20005;-71
2022/11/19 08:50:06;;;;;;;;;;;;;;;3.00;57.71;99192.50;5076302;28;19931;-71
2022/11/19 08:52:36;;;;;;;;;;;;;;;3.07;57.99;99198.56;5076363;28;19928;-71
2022/11/19 08:55:05;;;;;;;;;;;;;;;3.06;57.37;99206.91;5096301;28;19931;-71
2022/11/19 08:57:34;;;;;;;;;;;;;;;3.07;57.76;99206.13;5095392;28;20385;-71
2022/11/19 09:00:02;;;;;;;;;;;;;;;3.02;56.76;99210.22;5096793;28;20317;-71
2022/11/19 09:02:33;;;;;;;;;;;;;;;3.03;57.06;99209.38;5096452;28;19924;-71
2022/11/19 09:05:01;;;;;;;;;;;;;;;2.97;57.06;99214.28;5096706;28;19982;-71
2022/11/19 09:07:30;;;;;;;;;;;;;;;2.91;56.37;99229.25;5096367;28;19973;-71
2022/11/19 09:09:59;;;;;;;;;;;;;;;2.87;56.56;99232.53;5096582;28;20031;-71
2022/11/19 09:12:29;;;;;;;;;;;;;;;2.86;56.22;99236.72;5096224;28;19931;-71
2022/11/19 09:14:58;;;;;;;;;;;;;;;2.84;56.15;99224.91;5096257;28;19947;-71
2022/11/19 09:17:27;;;;;;;;;;;;;;;2.83;56.86;99225.75;5095851;28;19947;-73
2022/11/19 09:19:56;;;;;;;;;;;;;;;2.84;57.05;99227.44;5096572;28;20268;-71
2022/11/19 09:22:24;;;;;;;;;;;;;;;2.93;57.05;99230.19;5095949;28;19998;-71
2022/11/19 09:24:52;;;;;;;;;;;;;;;3.07;56.91;99229.63;5096249;28;19942;-70
2022/11/19 09:27:22;;;;;;;;;;;;;;;3.21;57.44;99229.94;5096250;28;20271;-71
2022/11/19 09:29:50;;;;;;;;;;;;;;;3.37;56.96;99237.00;5096046;28;19924;-72
2022/11/19 09:32:18;;;;;;;;;;;;;;;3.33;56.30;99230.19;5096453;28;20270;-72
2022/11/19 09:34:52;;;;;;;;;;;;;;;3.41;56.56;99232.88;5094856;28;19931;-72
2022/11/19 09:37:21;;;;;;;;;;;;;;;3.44;56.18;99228.72;5095859;28;20015;-71
2022/11/19 09:39:49;;;;;;;;;;;;;;;3.41;55.35;99233.69;5095853;28;19931;-71
2022/11/19 09:42:23;;;;;;;;;;;;;;;3.46;55.43;99234.66;5096768;28;20346;-71
2022/11/19 09:45:02;;;;;;;;;;;;;;;3.61;55.64;99232.44;5095905;28;19935;-72
2022/11/19 09:47:38;;;;;;;;;;;;;;;3.60;55.88;99230.72;5094412;28;19924;-72
2022/11/19 09:50:13;;;;;;;;;;;;;;;3.59;55.50;99230.72;5096149;28;20336;-72
2022/11/19 09:52:44;;;;;;;;;;;;;;;3.58;55.63;99226.47;5095678;28;19934;-72
2022/11/19 09:55:16;;;;;;;;;;;;;;;3.71;56.19;99224.22;5095739;28;19924;-72
2022/11/19 09:57:47;;;;;;;;;;;;;;;3.85;56.57;99221.97;5095879;28;19924;-72
2022/11/19 10:00:16;;;;;;;;;;;;;;;3.87;56.79;99226.22;5095563;28;19933;-72
2022/11/19 10:02:46;;;;;;;;;;;;;;;3.85;56.48;99227.88;5095833;28;19924;-72
2022/11/19 10:05:15;;;;;;;;;;;;;;;3.90;56.64;99230.47;5095448;28;20015;-72
2022/11/19 10:07:51;;;;;;;;;;;;;;;4.02;56.35;99236.59;5095362;28;19930;-71
2022/11/19 10:10:29;;;;;;;;;;;;;;;4.06;56.32;99240.88;5095699;28;19964;-72
2022/11/19 10:13:10;;;;;;;;;;;;;;;4.07;55.98;99240.06;5095409;28;19950;-72
2022/11/19 10:15:48;;;;;;;;;;;;;;;4.08;55.12;99234.16;5095313;28;19974;-72
2022/11/19 10:18:21;;;;;;;;;;;;;;;4.24;56.16;99232.78;5095836;28;20289;-71
2022/11/19 10:20:56;;;;;;;;;;;;;;;4.19;56.01;99238.56;5095251;28;19924;-72
2022/11/19 10:23:32;;;;;;;;;;;;;;;4.10;55.90;99234.22;5095188;28;19924;-71
2022/11/19 10:26:03;;;;;;;;;;;;;;;4.12;55.46;99241.81;5095076;28;19924;-71
2022/11/19 10:28:35;;;;;;;;;;;;;;;4.13;56.12;99236.75;5094213;28;19924;-71
2022/11/19 10:31:07;;;;;;;;;;;;;;;4.17;56.02;99242.72;5095305;28;20314;-72
2022/11/19 10:33:40;;;;;;;;;;;;;;;4.16;56.59;99238.50;5094958;28;19931;-72
2022/11/19 10:36:11;;;;;;;;;;;;;;;4.13;56.47;99235.94;5095205;28;19924;-72
2022/11/19 10:38:42;;;;;;;;;;;;;;;3.98;55.99;99239.03;5095221;28;20340;-71
2022/11/19 10:41:19;;;;;;;;;;;;;;;3.90;55.82;99236.38;5094794;28;19924;-71
2022/11/19 10:43:52;;;;;;;;;;;;;;;3.89;55.81;99239.69;5095110;28;20397;-71
2022/11/19 10:46:23;;;;;;;;;;;;;;;3.84;55.46;99241.28;5095074;28;19924;-71
2022/11/19 10:48:54;;;;;;;;;;;;;;;3.89;56.10;99239.69;5094913;28;19924;-71
2022/11/19 10:51:24;;;;;;;;;;;;;;;3.96;56.13;99244.03;5094649;28;19924;-71
2022/11/19 10:53:54;;;;;;;;;;;;;;;3.97;55.94;99238.19;5094915;28;20259;-71
2022/11/19 10:56:24;;;;;;;;;;;;;;;3.97;55.75;99253.31;5094609;28;19924;-71
2022/11/19 10:58:54;;;;;;;;;;;;;;;4.06;55.70;99248.44;5094488;28;19924;-72
2022/11/19 11:01:25;;;;;;;;;;;;;;;4.14;55.54;99251.09;5094471;28;19924;-72
2022/11/19 11:04:13;;;;;;;;;;;;;;;4.23;55.71;99247.88;5094459;28;19975;-72
2022/11/19 11:06:50;;;;;;;;;;;;;;;4.20;55.53;99245.31;5094414;28;19924;-72
2022/11/19 11:09:29;;;;;;;;;;;;;;;4.14;55.18;99240.16;5094023;28;19928;-72
2022/11/19 11:17:21;;;;;;;;;;;;;;;4.24;55.37;99254.63;5094269;28;19924;-72
2022/11/19 11:19:58;;;;;;;;;;;;;;;4.23;55.20;99255.44;5094040;28;20011;-72
2022/11/19 11:22:27;;;;;;;;;;;;;;;4.26;55.08;99250.47;5094155;28;19931;-72
2022/11/19 11:24:56;;;;;;;;;;;;;;;4.24;55.13;99252.97;5094071;28;19928;-72
2022/11/19 11:27:32;;;;;;;;;;;;;;;4.26;55.17;99255.50;5094204;28;19955;-72
2022/11/19 11:30:15;;;;;;;;;;;;;;;4.30;55.43;99254.72;5093945;28;19924;-72
2022/11/19 11:32:44;;;;;;;;;;;;;;;4.31;55.62;99243.81;5094093;28;19928;-72
2022/11/19 11:35:23;;;;;;;;;;;;;;;4.32;55.43;99241.31;5094092;28;19931;-72
2022/11/19 11:37:53;;;;;;;;;;;;;;;4.32;54.62;99243.00;5093920;28;19924;-72
2022/11/19 11:40:22;;;;;;;;;;;;;;;4.32;54.94;99235.44;5098147;28;19969;-72
2022/11/19 11:42:51;;;;;;;;;;;;;;;4.36;54.24;99234.66;5100615;28;20373;-73
2022/11/19 11:45:27;;;;;;;;;;;;;;;4.37;54.20;99237.19;5100931;28;19928;-72
2022/11/19 11:47:56;;;;;;;;;;;;;;;4.39;53.96;99237.22;5100547;28;19974;-73
2022/11/19 11:50:25;;;;;;;;;;;;;;;4.28;53.85;99232.00;5100410;28;19947;-72
2022/11/19 11:52:56;;;;;;;;;;;;;;;4.21;53.56;99230.19;5099790;28;20389;-72
2022/11/19 11:55:31;;;;;;;;;;;;;;;4.15;53.31;99226.72;5100623;28;19973;-72
2022/11/19 11:58:01;;;;;;;;;;;;;;;4.16;53.84;99218.28;5101217;28;20019;-72
2022/11/19 12:00:32;;;;;;;;;;;;;;;4.17;53.80;99220.00;5100515;28;20377;-72
2022/11/19 12:03:01;;;;;;;;;;;;;;;4.14;53.59;99225.00;5100530;28;19931;-72
2022/11/19 12:05:37;;;;;;;;;;;;;;;4.08;53.68;99234.16;5100756;28;20340;-73
2022/11/19 12:08:14;;;;;;;;;;;;;;;4.16;53.86;99249.44;5100506;28;19931;-72
2022/11/19 12:10:46;;;;;;;;;;;;;;;4.24;53.70;99267.25;5099280;28;19924;-72
2022/11/19 12:13:30;;;;;;;;;;;;;;;4.31;54.24;99269.06;5100434;28;19924;-72
2022/11/19 12:16:05;;;;;;;;;;;;;;;4.32;54.52;99263.22;5100377;28;19924;-72
2022/11/19 12:18:39;;;;;;;;;;;;;;;4.32;54.39;99255.63;5100462;28;19924;-72
2022/11/19 12:21:10;;;;;;;;;;;;;;;4.29;54.25;99256.44;5099475;28;19924;-72
2022/11/19 12:23:59;;;;;;;;;;;;;;;4.23;54.06;99251.25;5100495;28;20435;-72
2022/11/19 12:26:34;;;;;;;;;;;;;;;4.23;53.86;99255.44;5098722;28;19930;-73
2022/11/19 12:29:11;;;;;;;;;;;;;;;4.23;54.08;99260.50;5100208;28;19971;-73
2022/11/19 12:31:47;;;;;;;;;;;;;;;4.25;53.95;99252.13;5100632;28;19947;-73
2022/11/19 12:34:27;;;;;;;;;;;;;;;4.29;54.17;99251.38;5099047;28;19924;-73
2022/11/19 12:37:01;;;;;;;;;;;;;;;4.37;54.64;99257.38;5100362;28;20039;-74
2022/11/19 12:39:36;;;;;;;;;;;;;;;4.38;55.09;99265.81;5100545;28;19970;-74
2022/11/19 12:42:17;;;;;;;;;;;;;;;4.42;54.93;99260.00;5100299;28;19928;-73
2022/11/19 12:44:50;;;;;;;;;;;;;;;4.37;54.45;99264.97;5100221;28;19934;-73
2022/11/19 12:47:26;;;;;;;;;;;;;;;4.35;54.43;99251.47;5100428;28;19989;-73
2022/11/19 12:50:12;;;;;;;;;;;;;;;4.35;55.13;99245.56;5100063;28;19978;-73
2022/11/19 12:52:55;;;;;;;;;;;;;;;4.32;54.93;99255.63;5096272;28;19931;-73
2022/11/19 12:55:29;;;;;;;;;;;;;;;4.33;55.33;99254.78;5097209;28;19930;-73
2022/11/19 12:58:03;;;;;;;;;;;;;;;4.26;55.31;99260.56;5097148;28;20297;-73
2022/11/19 13:00:35;;;;;;;;;;;;;;;4.05;54.93;99256.81;5096715;28;19924;-74
2022/11/19 13:03:13;;;;;;;;;;;;;;;4.00;55.13;99263.50;5096682;28;19931;-73
2022/11/19 13:05:45;;;;;;;;;;;;;;;4.05;54.93;99261.88;5096945;28;19924;-73
2022/11/19 13:08:16;;;;;;;;;;;;;;;4.05;55.29;99254.28;5096745;28;19967;-72
2022/11/19 13:10:48;;;;;;;;;;;;;;;4.04;55.29;99264.38;5096762;28;20344;-72
2022/11/19 13:13:19;;;;;;;;;;;;;;;3.97;55.72;99258.38;5096442;28;20023;-73
2022/11/19 13:15:50;;;;;;;;;;;;;;;4.00;55.72;99253.41;5095300;28;19925;-72
2022/11/19 13:18:21;;;;;;;;;;;;;;;4.04;56.00;99257.66;5096426;28;19935;-72
2022/11/19 13:20:52;;;;;;;;;;;;;;;4.08;56.08;99259.41;5096367;28;20392;-72
2022/11/19 13:23:23;;;;;;;;;;;;;;;4.10;56.55;99263.66;5096381;28;19928;-74
2022/11/19 13:25:56;;;;;;;;;;;;;;;4.04;56.52;99260.19;5096252;28;19924;-73
2022/11/19 13:28:29;;;;;;;;;;;;;;;3.99;56.79;99255.88;5096594;28;19977;-73
2022/11/19 13:31:01;;;;;;;;;;;;;;;3.95;56.46;99260.03;5096337;28;20365;-72
2022/11/19 13:33:32;;;;;;;;;;;;;;;3.94;56.31;99253.25;5096037;28;20362;-73
2022/11/19 13:36:03;;;;;;;;;;;;;;;3.85;56.80;99245.53;5096494;28;19931;-73
2022/11/19 13:38:36;;;;;;;;;;;;;;;3.88;56.40;99240.53;5094678;28;19924;-73
2022/11/19 13:41:10;;;;;;;;;;;;;;;3.93;56.92;99249.06;5095320;28;19925;-72
2022/11/19 13:46:21;;;;;;;;;;;;;;;3.77;56.39;99284.03;5095920;28;19928;-72
2022/11/19 13:48:55;;;;;;;;;;;;;;;3.69;56.16;99286.44;5095972;28;19931;-72